Time;durP1;ratioP1;P1;durP2;ratioP2;P2;SDS_P1;SDS_P2;PMS_P1;PMS_P2;Temp;Humidity;BMP_temperature;BMP_pressure;BME280_temperature;BME280_humidity;BME280_pressure;Samples;Min_cycle;Max_cycle;Signal;HPM_P1;HPM_P2
2022/11/19 00:00:52;;;;;;;22.20;14.70;;;6.60;91.50;;;;;;5018361;28;20105;-74
2022/11/19 00:03:20;;;;;;;28.77;17.20;;;6.60;91.50;;;;;;5018213;28;20064;-76
2022/11/19 00:05:48;;;;;;;27.38;16.50;;;6.60;91.60;;;;;;5022353;28;20542;-76
2022/11/19 00:08:18;;;;;;;23.40;15.02;;;6.60;91.70;;;;;;5020186;28;20108;-75
2022/11/19 00:10:47;;;;;;;;;;;6.60;91.60;;;;;;5010711;28;20026;-77
2022/11/19 00:13:14;;;;;;;25.37;16.60;;;6.60;91.60;;;;;;5011863;28;19958;-75
2022/11/19 00:15:40;;;;;;;26.15;18.77;;;6.50;92.10;;;;;;5023348;28;20068;-73
2022/11/19 00:18:17;;;;;;;22.02;14.40;;;6.50;91.60;;;;;;5015721;28;20148;-76
2022/11/19 00:20:43;;;;;;;24.45;14.77;;;6.50;91.40;;;;;;5026213;28;20442;-73
2022/11/19 00:23:10;;;;;;;25.80;17.95;;;6.50;91.50;;;;;;5013161;28;20018;-74
2022/11/19 00:25:36;;;;;;;26.23;17.17;;;6.50;91.60;;;;;;5017562;28;20050;-74
2022/11/19 00:28:02;;;;;;;27.13;18.33;;;6.50;91.60;;;;;;5013664;28;20022;-74
2022/11/19 00:30:27;;;;;;;28.25;17.77;;;6.50;91.40;;;;;;5016566;28;20136;-75
2022/11/19 00:32:56;;;;;;;19.35;13.43;;;6.50;91.60;;;;;;5008330;28;20022;-74
2022/11/19 00:35:21;;;;;;;24.48;16.20;;;6.50;91.70;;;;;;5016783;28;20460;-74
2022/11/19 00:37:47;;;;;;;26.60;17.55;;;6.40;91.30;;;;;;5009918;28;20022;-73
2022/11/19 00:40:13;;;;;;;21.58;13.88;;;6.50;91.20;;;;;;5019213;28;20028;-76
2022/11/19 00:43:45;;;;;;;27.30;17.27;;;6.50;91.30;;;;;;5026817;28;20025;-74
2022/11/19 00:45:24;;;;;;;21.95;14.57;;;6.50;91.60;;;;;;5022048;28;20021;-74
2022/11/19 00:47:49;;;;;;;24.45;17.80;;;6.50;92.00;;;;;;5012560;28;20029;-75
2022/11/19 00:50:15;;;;;;;18.92;11.77;;;6.50;91.70;;;;;;5016892;28;20076;-74
2022/11/19 00:52:41;;;;;;;25.63;16.92;;;6.50;92.00;;;;;;5026996;28;20029;-75
2022/11/19 00:55:07;;;;;;;25.35;17.20;;;6.40;92.00;;;;;;5028213;28;20091;-73
2022/11/19 00:57:32;;;;;;;23.60;16.35;;;6.40;91.70;;;;;;5010842;28;20022;-74
2022/11/19 00:59:59;;;;;;;25.02;14.07;;;6.30;91.30;;;;;;5011652;28;20037;-74
2022/11/19 01:02:25;;;;;;;28.17;15.05;;;6.30;91.90;;;;;;5023510;28;20022;-75
2022/11/19 01:04:50;;;;;;;25.17;17.10;;;6.30;91.90;;;;;;5016557;28;20026;-74
2022/11/19 01:07:16;;;;;;;28.30;17.05;;;6.30;91.40;;;;;;5023194;28;20021;-74
2022/11/19 01:09:42;;;;;;;26.63;18.00;;;6.30;91.50;;;;;;5026000;28;20021;-74
2022/11/19 01:12:07;;;;;;;24.52;16.60;;;6.30;91.30;;;;;;5020754;28;20041;-74
2022/11/19 01:14:33;;;;;;;25.77;18.60;;;6.30;91.20;;;;;;5011816;28;20452;-74
2022/11/19 01:16:58;;;;;;;28.65;20.25;;;6.30;91.40;;;;;;5017954;28;20088;-74
2022/11/19 01:19:24;;;;;;;25.83;16.92;;;6.30;91.40;;;;;;5007801;28;20030;-73
2022/11/19 01:21:49;;;;;;;23.40;17.85;;;6.30;91.50;;;;;;5021978;28;20041;-74
2022/11/19 01:24:15;;;;;;;23.45;16.40;;;6.20;90.90;;;;;;5027579;28;20157;-73
2022/11/19 01:26:41;;;;;;;24.90;17.35;;;6.30;91.70;;;;;;5021546;28;20076;-74
2022/11/19 01:29:07;;;;;;;25.05;16.25;;;6.30;91.40;;;;;;5020311;28;20098;-75
2022/11/19 01:31:33;;;;;;;24.52;17.40;;;6.20;91.20;;;;;;5014772;28;20033;-75
2022/11/19 01:33:59;;;;;;;22.33;15.77;;;6.20;91.10;;;;;;5015602;28;20026;-75
2022/11/19 01:36:27;;;;;;;23.45;16.42;;;6.20;91.30;;;;;;5012619;28;20014;-74
2022/11/19 01:38:53;;;;;;;21.98;15.15;;;6.10;91.50;;;;;;5024847;28;20030;-74
2022/11/19 01:41:20;;;;;;;20.60;13.55;;;6.10;92.50;;;;;;5012096;28;20017;-74
2022/11/19 01:43:49;;;;;;;24.33;17.15;;;6.10;92.00;;;;;;5023790;28;20034;-74
2022/11/19 01:46:23;;;;;;;26.35;19.05;;;6.00;91.80;;;;;;5015311;28;20047;-74
2022/11/19 01:49:02;;;;;;;25.00;17.58;;;6.00;91.20;;;;;;5025524;28;20028;-74
2022/11/19 01:51:31;;;;;;;25.77;17.98;;;6.10;91.50;;;;;;5011772;28;20033;-73
2022/11/19 01:54:02;;;;;;;25.38;17.02;;;6.00;91.30;;;;;;5016834;28;20022;-73
2022/11/19 01:56:29;;;;;;;29.00;19.38;;;6.00;91.10;;;;;;5012468;28;20030;-75
2022/11/19 01:59:01;;;;;;;26.58;19.30;;;6.00;91.00;;;;;;5017397;28;20049;-74
2022/11/19 02:01:28;;;;;;;23.00;15.90;;;5.90;90.20;;;;;;5010744;28;20506;-73
2022/11/19 02:03:54;;;;;;;24.90;16.98;;;5.90;90.70;;;;;;5014363;28;20063;-75
2022/11/19 02:06:19;;;;;;;25.27;17.20;;;5.90;91.30;;;;;;5010976;28;20047;-74
2022/11/19 02:08:49;;;;;;;27.45;18.27;;;5.90;91.70;;;;;;5024898;28;20025;-75
2022/11/19 02:11:36;;;;;;;29.88;20.00;;;5.80;91.40;;;;;;5020814;28;20042;-74
2022/11/19 02:14:13;;;;;;;20.83;14.02;;;5.90;92.60;;;;;;5024399;28;20033;-75
2022/11/19 02:17:06;;;;;;;29.95;21.27;;;5.90;92.40;;;;;;5030435;28;20125;-73
2022/11/19 02:19:50;;;;;;;30.85;20.70;;;5.80;92.00;;;;;;5029146;28;20026;-76
2022/11/19 02:22:40;;;;;;;26.02;18.05;;;5.90;91.20;;;;;;5016185;28;20056;-74
2022/11/19 02:25:39;;;;;;;34.15;23.15;;;5.80;91.40;;;;;;5024662;28;20100;-75
2022/11/19 02:28:30;;;;;;;24.05;15.93;;;5.80;90.40;;;;;;5014892;28;20375;-76
2022/11/19 02:31:04;;;;;;;27.88;19.13;;;5.80;91.40;;;;;;5030367;28;20523;-75
2022/11/19 02:33:58;;;;;;;30.85;20.60;;;5.70;91.20;;;;;;5018439;28;20400;-74
2022/11/19 02:37:28;;;;;;;34.10;22.85;;;5.80;92.30;;;;;;5014008;28;20441;-74
2022/11/19 02:40:08;;;;;;;45.70;26.73;;;5.70;91.20;;;;;;4984625;28;20026;-75
2022/11/19 02:43:13;;;;;;;35.60;24.35;;;5.60;90.30;;;;;;5014863;28;20508;-75
2022/11/19 02:46:02;;;;;;;34.53;23.88;;;5.60;90.30;;;;;;5014893;28;20029;-75
2022/11/19 02:48:36;;;;;;;35.63;24.13;;;5.60;92.30;;;;;;5019984;28;20131;-73
2022/11/19 02:51:06;;;;;;;30.35;21.55;;;5.60;91.60;;;;;;5021992;28;20041;-74
2022/11/19 02:53:35;;;;;;;36.67;26.27;;;5.40;91.90;;;;;;5014721;28;20030;-75
2022/11/19 02:56:38;;;;;;;34.25;23.70;;;5.40;91.50;;;;;;5024773;28;20037;-74
2022/11/19 03:04:36;;;;;;;36.58;24.63;;;5.40;91.30;;;;;;5029857;28;20667;-74
2022/11/19 03:07:11;;;;;;;35.03;23.70;;;5.50;90.90;;;;;;5014156;28;20025;-75
2022/11/19 03:09:44;;;;;;;36.13;24.65;;;5.40;91.50;;;;;;5016927;28;20117;-74
2022/11/19 03:12:19;;;;;;;38.55;25.02;;;5.40;90.30;;;;;;5028924;28;20045;-73
2022/11/19 03:17:52;;;;;;;29.00;18.98;;;5.40;89.30;;;;;;5024201;28;20414;-73
2022/11/19 03:20:18;;;;;;;34.92;23.77;;;5.40;91.60;;;;;;5019261;28;20395;-75
2022/11/19 03:22:46;;;;;;;34.65;24.35;;;5.30;91.40;;;;;;5029438;28;20029;-74
2022/11/19 03:25:19;;;;;;;37.40;26.27;;;5.40;92.80;;;;;;5011954;28;20143;-73
2022/11/19 03:27:47;;;;;;;35.00;24.55;;;5.40;91.80;;;;;;5025986;28;20032;-75
2022/11/19 03:30:15;;;;;;;31.95;20.38;;;5.20;91.40;;;;;;5015492;28;20029;-73
2022/11/19 03:32:53;;;;;;;42.15;28.77;;;5.30;91.90;;;;;;5028996;28;20029;-74
2022/11/19 03:35:29;;;;;;;32.13;21.98;;;5.30;91.80;;;;;;5016625;28;20095;-74
2022/11/19 03:37:58;;;;;;;34.10;22.35;;;5.20;91.80;;;;;;5019408;28;20495;-74
2022/11/19 03:40:26;;;;;;;40.17;27.38;;;5.10;92.10;;;;;;5024346;28;20025;-75
2022/11/19 03:42:54;;;;;;;30.77;19.90;;;5.10;91.20;;;;;;5026473;28;20026;-75
2022/11/19 03:45:25;;;;;;;40.30;27.02;;;5.00;91.70;;;;;;5024858;28;20041;-73
2022/11/19 03:47:52;;;;;;;31.73;20.98;;;4.90;91.60;;;;;;5020512;28;20030;-74
2022/11/19 03:50:36;;;;;;;31.75;21.00;;;4.90;91.70;;;;;;5025887;28;20056;-75
2022/11/19 03:53:01;;;;;;;38.67;26.58;;;4.90;91.90;;;;;;5025741;28;20069;-74
2022/11/19 03:55:38;;;;;;;35.92;25.38;;;4.90;91.70;;;;;;5014258;28;20585;-73
2022/11/19 03:58:06;;;;;;;37.05;25.02;;;4.90;91.40;;;;;;5025345;28;20026;-75
2022/11/19 04:00:32;;;;;;;36.67;25.83;;;4.90;91.80;;;;;;5021239;28;20108;-74
2022/11/19 04:02:58;;;;;;;28.45;19.42;;;4.90;91.60;;;;;;5027069;28;20090;-74
2022/11/19 04:05:24;;;;;;;32.38;22.83;;;5.00;92.80;;;;;;5020635;28;20026;-74
2022/11/19 04:07:50;;;;;;;31.65;20.77;;;4.90;93.20;;;;;;5023166;28;20071;-76
2022/11/19 04:10:15;;;;;;;33.83;24.13;;;4.90;93.20;;;;;;5016738;28;20459;-74
2022/11/19 04:12:41;;;;;;;25.15;16.83;;;4.90;93.20;;;;;;5027593;28;20087;-74
2022/11/19 04:15:09;;;;;;;35.65;24.67;;;4.90;93.50;;;;;;5019725;28;20101;-74
2022/11/19 04:17:34;;;;;;;36.08;22.88;;;4.90;93.40;;;;;;5021532;28;20083;-74
2022/11/19 04:20:00;;;;;;;35.97;24.38;;;4.80;92.50;;;;;;5020142;28;20018;-75
2022/11/19 04:22:25;;;;;;;30.90;21.58;;;4.80;92.50;;;;;;5021964;28;20096;-74
2022/11/19 04:24:51;;;;;;;37.15;23.70;;;4.80;92.60;;;;;;5019041;28;20521;-74
2022/11/19 04:27:17;;;;;;;37.90;24.23;;;4.70;91.70;;;;;;5018938;28;20083;-74
2022/11/19 04:29:42;;;;;;;34.97;22.65;;;4.70;91.40;;;;;;5017076;28;20025;-73
2022/11/19 04:32:08;;;;;;;36.13;25.67;;;4.70;91.80;;;;;;5017920;28;20044;-74
2022/11/19 04:34:33;;;;;;;39.13;25.30;;;4.80;91.90;;;;;;5020697;28;20496;-74
2022/11/19 04:36:59;;;;;;;35.08;23.50;;;4.80;90.80;;;;;;5014993;28;20532;-73
2022/11/19 04:39:25;;;;;;;31.23;20.15;;;4.70;90.50;;;;;;5027670;28;20021;-75
2022/11/19 04:41:51;;;;;;;24.17;15.73;;;4.80;93.20;;;;;;5019410;28;20072;-75
2022/11/19 04:44:17;;;;;;;30.20;19.55;;;4.80;93.20;;;;;;5027628;28;20021;-74
2022/11/19 04:46:42;;;;;;;43.58;29.48;;;4.80;93.20;;;;;;5026594;28;20034;-73
2022/11/19 04:49:08;;;;;;;42.17;26.98;;;4.80;92.20;;;;;;5023878;28;20021;-74
2022/11/19 04:51:33;;;;;;;36.05;25.13;;;4.80;92.20;;;;;;5027585;28;20041;-73
2022/11/19 04:53:59;;;;;;;37.03;25.42;;;4.80;92.50;;;;;;5021335;28;20025;-74
2022/11/19 04:56:25;;;;;;;46.45;30.48;;;4.80;92.50;;;;;;5016440;28;20034;-75
2022/11/19 04:58:51;;;;;;;33.60;23.23;;;5.00;94.40;;;;;;5021552;28;20028;-73
2022/11/19 05:01:19;;;;;;;32.72;19.38;;;5.00;93.80;;;;;;5028553;28;20024;-73
2022/11/19 05:03:46;;;;;;;34.17;23.63;;;5.00;94.30;;;;;;5025206;28;20701;-74
2022/11/19 05:06:11;;;;;;;41.75;28.17;;;4.90;93.50;;;;;;5019981;28;20022;-74
2022/11/19 05:08:37;;;;;;;33.95;21.10;;;4.90;93.20;;;;;;5012633;28;20026;-74
2022/11/19 05:11:03;;;;;;;44.28;29.92;;;4.80;92.20;;;;;;5017856;28;20041;-74
2022/11/19 05:13:29;;;;;;;31.45;21.25;;;4.80;91.60;;;;;;5015642;28;20367;-74
2022/11/19 05:15:54;;;;;;;41.80;26.83;;;4.70;92.30;;;;;;5025181;28;20071;-73
2022/11/19 05:18:20;;;;;;;37.75;25.63;;;4.70;91.60;;;;;;5013534;28;20026;-73
2022/11/19 05:20:46;;;;;;;34.30;23.77;;;4.70;91.10;;;;;;5022408;28;20299;-73
2022/11/19 05:23:12;;;;;;;35.50;24.25;;;4.70;91.80;;;;;;5009173;28;20038;-73
2022/11/19 05:25:37;;;;;;;39.63;26.15;;;4.80;91.90;;;;;;5020374;28;20075;-73
2022/11/19 05:28:03;;;;;;;33.38;21.90;;;4.80;92.80;;;;;;5009901;28;20037;-73
2022/11/19 05:30:30;;;;;;;40.83;28.25;;;4.80;92.00;;;;;;5024904;28;20108;-73
2022/11/19 05:32:56;;;;;;;36.60;25.33;;;4.90;92.40;;;;;;5031533;28;20025;-75
2022/11/19 05:35:22;;;;;;;37.50;25.20;;;4.70;91.00;;;;;;5021633;28;20653;-73
2022/11/19 05:37:48;;;;;;;34.30;23.05;;;4.70;91.30;;;;;;5028746;28;20025;-73
2022/11/19 05:40:14;;;;;;;37.85;25.77;;;4.70;91.00;;;;;;5024725;28;20021;-73
2022/11/19 05:42:40;;;;;;;36.90;25.05;;;4.60;90.70;;;;;;5022973;28;20053;-74
2022/11/19 05:45:06;;;;;;;35.22;22.92;;;4.70;91.20;;;;;;5021942;28;20474;-74
2022/11/19 05:47:33;;;;;;;32.35;20.55;;;4.70;91.10;;;;;;5016083;28;20511;-73
2022/11/19 05:49:59;;;;;;;35.42;25.20;;;4.60;91.00;;;;;;5019016;28;20108;-74
2022/11/19 05:52:24;;;;;;;39.50;27.38;;;4.60;91.40;;;;;;5029896;28;20042;-74
2022/11/19 05:54:50;;;;;;;44.22;28.63;;;4.60;90.80;;;;;;5017564;28;20028;-72
2022/11/19 05:57:15;;;;;;;31.75;20.55;;;4.60;90.50;;;;;;5021131;28;20014;-74
2022/11/19 05:59:41;;;;;;;27.25;16.50;;;4.50;90.80;;;;;;5017278;28;20022;-73
2022/11/19 06:02:07;;;;;;;40.28;27.85;;;4.50;92.30;;;;;;5025330;28;20091;-74
2022/11/19 06:04:32;;;;;;;36.95;24.45;;;4.50;91.40;;;;;;5026290;28;20026;-74
2022/11/19 06:06:58;;;;;;;37.83;25.13;;;4.50;90.80;;;;;;5020006;28;20464;-74
2022/11/19 06:09:24;;;;;;;41.05;27.67;;;4.50;92.00;;;;;;5016961;28;20025;-74
2022/11/19 06:11:49;;;;;;;27.17;17.42;;;4.50;91.40;;;;;;5029357;28;20029;-73
2022/11/19 06:14:26;;;;;;;22.23;13.35;;;4.50;91.40;;;;;;5026743;28;20041;-74
2022/11/19 06:16:57;;;;;;;37.72;25.27;;;4.50;93.00;;;;;;5023880;28;20033;-73
2022/11/19 06:19:24;;;;;;;36.35;23.98;;;4.50;92.50;;;;;;5012545;28;20028;-73
2022/11/19 06:21:51;;;;;;;41.05;27.42;;;4.50;93.40;;;;;;5022655;28;20018;-74
2022/11/19 06:24:17;;;;;;;37.60;23.58;;;4.60;93.60;;;;;;5012273;28;20154;-74
2022/11/19 06:26:44;;;;;;;41.70;27.65;;;4.50;92.10;;;;;;5019826;28;20833;-73
2022/11/19 06:29:14;;;;;;;37.78;24.50;;;4.40;90.90;;;;;;5029895;28;20558;-73
2022/11/19 06:31:40;;;;;;;37.58;25.23;;;4.30;90.60;;;;;;5023921;28;20033;-73
2022/11/19 06:34:06;;;;;;;36.45;24.55;;;4.30;90.10;;;;;;5020018;28;20482;-73
2022/11/19 06:36:32;;;;;;;39.25;25.70;;;4.30;91.50;;;;;;5023568;28;20108;-74
2022/11/19 06:38:57;;;;;;;31.83;19.20;;;4.30;91.60;;;;;;5029583;28;20030;-74
2022/11/19 06:41:23;;;;;;;37.38;23.95;;;4.30;92.90;;;;;;5019664;28;20125;-74
2022/11/19 06:43:49;;;;;;;39.85;26.70;;;4.20;91.60;;;;;;5023152;28;20018;-74
2022/11/19 06:46:14;;;;;;;30.48;19.70;;;4.30;92.70;;;;;;5015455;28;20475;-74
2022/11/19 06:48:41;;;;;;;41.53;27.42;;;4.30;93.50;;;;;;5024568;28;20093;-74
2022/11/19 06:51:07;;;;;;;35.67;20.40;;;4.10;90.80;;;;;;5029942;28;20541;-72
2022/11/19 06:53:34;;;;;;;34.35;21.98;;;4.10;92.20;;;;;;5028592;28;20028;-74
2022/11/19 06:56:02;;;;;;;37.50;25.17;;;4.10;91.80;;;;;;5018935;28;20496;-73
2022/11/19 06:58:28;;;;;;;35.28;22.60;;;4.20;92.00;;;;;;5019050;28;20069;-73
2022/11/19 07:00:54;;;;;;;34.90;23.55;;;4.20;91.80;;;;;;5029092;28;20018;-73
2022/11/19 07:03:21;;;;;;;41.72;27.33;;;4.20;92.20;;;;;;5023612;28;20029;-73
2022/11/19 07:05:47;;;;;;;36.53;23.33;;;4.10;92.20;;;;;;5020059;28;20025;-74
2022/11/19 07:08:13;;;;;;;37.70;25.88;;;4.20;92.50;;;;;;5022369;28;20029;-73
2022/11/19 07:10:39;;;;;;;38.97;26.50;;;4.10;91.40;;;;;;5019984;28;20030;-73
2022/11/19 07:13:05;;;;;;;35.97;21.35;;;4.10;92.20;;;;;;5018851;28;20079;-72
2022/11/19 07:15:30;;;;;;;37.97;24.40;;;4.30;92.80;;;;;;5017218;28;20443;-72
2022/11/19 07:17:57;;;;;;;35.95;23.23;;;4.70;92.70;;;;;;5011828;28;20030;-73
2022/11/19 07:20:23;;;;;;;31.75;18.88;;;5.20;92.30;;;;;;5028293;28;20806;-74
2022/11/19 07:22:49;;;;;;;30.98;18.23;;;5.70;92.00;;;;;;5020858;28;20025;-73
2022/11/19 07:25:14;;;;;;;36.85;20.92;;;6.00;90.90;;;;;;5025443;28;20034;-72
2022/11/19 07:27:42;;;;;;;28.17;17.73;;;6.00;90.30;;;;;;5009840;28;20032;-72
2022/11/19 07:30:09;;;;;;;27.42;18.13;;;5.90;89.90;;;;;;5028253;28;20484;-73
2022/11/19 07:32:34;;;;;;;29.35;19.88;;;5.80;89.60;;;;;;5020726;28;20045;-73
2022/11/19 07:35:00;;;;;;;30.08;18.77;;;5.80;90.20;;;;;;5018490;28;20018;-73
2022/11/19 07:37:26;;;;;;;31.58;18.63;;;6.10;89.70;;;;;;5023626;28;20030;-72
2022/11/19 07:39:52;;;;;;;33.22;21.77;;;6.20;89.30;;;;;;5016340;28;20045;-73
2022/11/19 07:45:03;;;;;;;29.92;18.15;;;6.40;86.90;;;;;;5019382;28;20048;-73
2022/11/19 07:47:29;;;;;;;30.45;19.80;;;6.50;86.20;;;;;;5017450;28;20542;-74
2022/11/19 07:49:54;;;;;;;31.40;20.55;;;6.40;85.20;;;;;;5020081;28;20096;-72
2022/11/19 07:52:20;;;;;;;29.00;18.92;;;6.30;85.00;;;;;;5019304;28;20033;-72
2022/11/19 07:54:46;;;;;;;29.60;18.45;;;6.00;83.30;;;;;;5020893;28;20049;-73
2022/11/19 07:57:12;;;;;;;27.98;17.92;;;5.70;83.90;;;;;;5020041;28;20060;-73
2022/11/19 07:59:38;;;;;;;31.05;18.80;;;5.50;84.40;;;;;;5022906;28;20040;-73
2022/11/19 08:02:04;;;;;;;30.67;19.95;;;5.50;85.60;;;;;;5023138;28;20026;-73
2022/11/19 08:04:30;;;;;;;28.83;18.00;;;5.50;84.60;;;;;;5023717;28;20894;-71
2022/11/19 08:06:56;;;;;;;31.08;19.33;;;5.40;84.80;;;;;;5019768;28;20029;-74
2022/11/19 08:09:21;;;;;;;31.42;19.67;;;5.50;84.50;;;;;;5019239;28;20033;-73
2022/11/19 08:11:47;;;;;;;26.27;16.60;;;5.40;83.10;;;;;;5018516;28;20041;-72
2022/11/19 08:14:13;;;;;;;26.75;18.45;;;5.20;83.40;;;;;;5022397;28;20025;-73
2022/11/19 08:19:23;;;;;;;29.05;19.20;;;5.30;83.10;;;;;;5023485;28;20060;-72
2022/11/19 08:21:49;;;;;;;30.67;20.15;;;5.60;82.40;;;;;;5024527;28;20547;-72
2022/11/19 08:24:18;;;;;;;24.17;16.55;;;5.80;81.60;;;;;;5016427;28;20050;-72
2022/11/19 08:26:44;;;;;;;25.85;16.88;;;5.80;82.30;;;;;;5018630;28;20018;-72
2022/11/19 08:29:11;;;;;;;28.92;18.30;;;5.90;81.90;;;;;;5018089;28;20218;-73
2022/11/19 08:31:37;;;;;;;26.48;17.08;;;5.80;81.30;;;;;;5007224;28;20042;-73
2022/11/19 08:34:03;;;;;;;24.33;15.93;;;5.70;81.90;;;;;;5014760;28;20494;-72
2022/11/19 08:36:29;;;;;;;24.83;16.20;;;5.70;81.90;;;;;;5014003;28;20014;-72
2022/11/19 08:38:59;;;;;;;24.13;15.73;;;5.70;82.80;;;;;;5016285;28;20061;-73
2022/11/19 08:44:10;;;;;;;26.13;17.48;;;6.00;82.50;;;;;;5017530;28;19916;-73
2022/11/19 08:46:37;;;;;;;26.33;16.58;;;6.10;82.10;;;;;;5023059;28;20033;-72
2022/11/19 08:49:02;;;;;;;27.02;16.23;;;6.20;80.40;;;;;;5020673;28;20114;-73
2022/11/19 08:51:28;;;;;;;25.20;17.17;;;6.30;80.80;;;;;;5020059;28;20104;-73
2022/11/19 08:53:53;;;;;;;22.27;15.25;;;6.50;79.70;;;;;;5015359;28;20053;-72
2022/11/19 08:56:20;;;;;;;21.88;15.40;;;6.50;78.60;;;;;;5018999;28;20030;-72
2022/11/19 08:58:46;;;;;;;24.13;14.63;;;6.70;79.30;;;;;;5017268;28;20021;-73
2022/11/19 09:01:15;;;;;;;21.85;15.52;;;6.70;78.90;;;;;;5019552;28;20495;-72
2022/11/19 09:03:41;;;;;;;22.95;15.32;;;6.60;77.80;;;;;;5017027;28;20061;-73
2022/11/19 09:06:08;;;;;;;21.70;14.80;;;6.80;78.60;;;;;;5015080;28;20026;-72
2022/11/19 09:08:34;;;;;;;20.33;14.10;;;7.30;78.80;;;;;;5019547;28;20025;-72
2022/11/19 09:11:04;;;;;;;22.83;15.63;;;7.80;76.00;;;;;;5014349;28;20036;-71
2022/11/19 09:13:30;;;;;;;17.95;13.48;;;8.50;75.00;;;;;;5016858;28;20112;-71
2022/11/19 09:15:56;;;;;;;17.88;12.30;;;8.60;72.80;;;;;;5021004;28;20100;-72
2022/11/19 09:18:21;;;;;;;17.60;12.48;;;8.40;72.60;;;;;;5021461;28;20026;-71
2022/11/19 09:20:55;;;;;;;17.55;13.18;;;8.50;70.90;;;;;;5022461;28;20040;-71
2022/11/19 09:23:25;;;;;;;18.05;12.50;;;8.40;71.20;;;;;;5022310;28;20014;-73
2022/11/19 09:25:58;;;;;;;20.08;12.93;;;8.50;71.30;;;;;;5012999;28;20033;-74
2022/11/19 09:28:24;;;;;;;17.38;12.85;;;8.60;70.90;;;;;;5030869;28;20018;-72
2022/11/19 09:31:08;;;;;;;15.52;11.63;;;8.80;69.90;;;;;;5013309;28;20040;-73
2022/11/19 09:33:36;;;;;;;16.48;11.82;;;9.00;69.80;;;;;;5028400;28;20472;-72
2022/11/19 09:36:02;;;;;;;16.05;11.50;;;9.50;71.50;;;;;;5010915;28;20559;-73
2022/11/19 09:38:30;;;;;;;14.40;10.60;;;9.80;71.00;;;;;;5017984;28;20029;-73
2022/11/19 09:40:58;;;;;;;15.75;11.10;;;10.10;69.70;;;;;;5023847;28;20021;-74
2022/11/19 09:44:04;;;;;;;16.50;12.13;;;10.20;68.50;;;;;;5023769;28;20487;-72
2022/11/19 09:46:44;;;;;;;18.70;11.73;;;10.50;67.70;;;;;;4994335;28;20112;-72
2022/11/19 09:49:16;;;;;;;16.30;11.40;;;10.80;67.50;;;;;;5017309;28;20030;-72
2022/11/19 09:51:55;;;;;;;15.43;10.63;;;11.00;65.20;;;;;;5022730;28;20451;-73
2022/11/19 09:54:22;;;;;;;13.88;10.38;;;10.70;66.10;;;;;;5014460;28;20022;-74
2022/11/19 09:56:50;;;;;;;17.20;10.68;;;10.70;66.20;;;;;;5007919;28;20033;-72
2022/11/19 09:59:36;;;;;;;13.43;10.13;;;10.70;66.10;;;;;;5021550;28;20029;-72
2022/11/19 10:02:21;;;;;;;13.25;9.82;;;11.00;66.40;;;;;;5026741;28;20037;-73
2022/11/19 10:04:49;;;;;;;10.63;8.10;;;11.00;65.70;;;;;;5022918;28;20142;-72
2022/11/19 10:07:38;;;;;;;13.18;9.75;;;11.40;73.40;;;;;;5017548;28;20797;-73
2022/11/19 10:10:39;;;;;;;13.50;9.65;;;11.70;72.60;;;;;;5020865;28;20029;-72
2022/11/19 10:13:22;;;;;;;13.25;9.68;;;11.90;73.50;;;;;;5018987;28;20056;-73
2022/11/19 10:16:06;;;;;;;13.95;9.00;;;12.30;72.90;;;;;;5025942;28;20068;-74
2022/11/19 10:18:57;;;;;;;13.23;8.90;;;12.60;72.20;;;;;;5019439;28;20116;-74
2022/11/19 10:21:44;;;;;;;13.50;9.25;;;12.70;68.40;;;;;;5021517;28;20026;-74
2022/11/19 10:24:18;;;;;;;13.60;9.65;;;12.60;66.20;;;;;;5016915;28;20045;-74
2022/11/19 10:27:11;;;;;;;12.38;9.05;;;12.50;64.40;;;;;;5028821;28;20283;-75
2022/11/19 10:29:39;;;;;;;12.57;9.02;;;12.20;66.00;;;;;;5014735;28;20029;-75
2022/11/19 10:32:39;;;;;;;13.73;9.07;;;12.00;66.80;;;;;;5011091;28;20452;-75
2022/11/19 10:35:13;;;;;;;10.98;8.02;;;11.80;69.40;;;;;;5018451;28;20033;-73
2022/11/19 10:37:50;;;;;;;10.38;7.65;;;11.80;70.80;;;;;;5021435;28;20554;-74
2022/11/19 10:40:21;;;;;;;12.00;8.38;;;11.90;71.10;;;;;;5022570;28;20053;-75
2022/11/19 10:42:52;;;;;;;12.00;7.18;;;12.00;70.50;;;;;;5001072;28;20025;-75
2022/11/19 10:45:22;;;;;;;10.68;7.32;;;12.10;72.90;;;;;;5024082;28;20021;-75
2022/11/19 10:48:07;;;;;;;11.68;7.40;;;12.40;71.90;;;;;;5022049;28;20064;-75
2022/11/19 10:50:32;;;;;;;10.10;6.85;;;12.60;71.40;;;;;;5023086;28;20018;-74
2022/11/19 10:53:28;;;;;;;9.18;6.82;;;12.70;73.70;;;;;;5014438;28;20281;-74
2022/11/19 10:56:11;;;;;;;7.68;5.85;;;12.60;72.00;;;;;;5030010;28;20095;-73
2022/11/19 10:58:43;;;;;;;8.38;5.60;;;12.50;75.90;;;;;;5024618;28;20777;-74
2022/11/19 11:01:17;;;;;;;9.65;7.55;;;12.80;75.10;;;;;;5023245;28;20038;-74
2022/11/19 11:03:49;;;;;;;8.40;6.15;;;13.00;73.80;;;;;;5029611;28;20030;-73
2022/11/19 11:06:14;;;;;;;10.07;7.18;;;13.10;74.50;;;;;;5029644;28;20129;-74
2022/11/19 11:08:51;;;;;;;9.35;7.47;;;12.90;72.60;;;;;;5019448;28;20112;-72
2022/11/19 11:17:18;;;;;;;9.00;6.45;;;13.30;75.00;;;;;;5018467;28;20099;-74
2022/11/19 11:19:44;;;;;;;8.90;6.65;;;13.50;75.60;;;;;;5014584;28;20036;-73
2022/11/19 11:22:10;;;;;;;8.77;6.03;;;13.70;76.50;;;;;;5022250;28;20022;-75
2022/11/19 11:24:37;;;;;;;10.77;5.82;;;13.70;74.50;;;;;;5010644;28;20137;-74
2022/11/19 11:27:21;;;;;;;9.35;6.22;;;13.80;76.00;;;;;;5021820;28;20041;-75
2022/11/19 11:29:46;;;;;;;11.20;6.35;;;13.60;75.30;;;;;;5016820;28;20116;-73
2022/11/19 11:32:27;;;;;;;8.02;4.95;;;13.60;78.00;;;;;;5027970;28;20124;-73
2022/11/19 11:34:52;;;;;;;7.45;5.72;;;13.70;80.00;;;;;;5019884;28;20029;-73
2022/11/19 11:37:18;;;;;;;8.27;5.78;;;14.20;80.30;;;;;;5021331;28;20022;-73
2022/11/19 11:39:51;;;;;;;9.10;6.07;;;14.60;79.30;;;;;;5020559;28;20125;-71
2022/11/19 11:42:18;;;;;;;9.43;6.85;;;14.80;78.50;;;;;;5017719;28;20025;-72
2022/11/19 11:45:00;;;;;;;9.23;6.80;;;14.90;77.20;;;;;;5023520;28;20148;-74
2022/11/19 11:47:30;;;;;;;8.80;7.03;;;14.60;77.20;;;;;;5022157;28;20520;-74
2022/11/19 11:50:18;;;;;;;9.35;6.93;;;14.30;77.40;;;;;;5010342;28;20026;-75
2022/11/19 11:52:48;;;;;;;12.57;8.57;;;13.90;79.20;;;;;;5016870;28;20022;-73
2022/11/19 11:55:22;;;;;;;11.52;9.50;;;13.40;64.50;;;;;;5018080;28;20037;-73
2022/11/19 11:57:52;;;;;;;12.13;8.82;;;12.80;58.90;;;;;;5019432;28;20067;-73
2022/11/19 12:00:27;;;;;;;12.40;8.30;;;12.30;55.70;;;;;;5019250;28;20034;-73
2022/11/19 12:03:02;;;;;;;12.38;10.75;;;11.80;53.20;;;;;;5018302;28;20045;-73
2022/11/19 12:05:53;;;;;;;10.57;8.50;;;11.70;53.90;;;;;;5012069;28;20032;-73
2022/11/19 12:08:56;;;;;;;11.38;8.52;;;11.50;52.90;;;;;;5017491;28;20029;-74
2022/11/19 12:11:55;;;;;;;13.85;9.52;;;11.60;58.10;;;;;;5015698;28;20081;-73
2022/11/19 12:14:37;;;;;;;10.30;7.68;;;11.60;55.90;;;;;;5035075;28;20025;-74
2022/11/19 12:17:25;;;;;;;9.18;6.60;;;11.70;53.70;;;;;;5015597;28;20045;-73
2022/11/19 12:20:22;;;;;;;11.32;7.78;;;12.10;69.30;;;;;;5017826;28;20040;-75
2022/11/19 12:23:19;;;;;;;11.00;8.95;;;12.10;61.40;;;;;;5016038;28;20025;-74
2022/11/19 12:25:54;;;;;;;12.02;8.50;;;12.00;55.40;;;;;;5013077;28;20169;-72
2022/11/19 12:28:19;;;;;;;10.45;8.70;;;12.10;50.80;;;;;;5019343;28;20025;-73
2022/11/19 12:30:58;;;;;;;9.32;7.15;;;12.30;56.70;;;;;;5019511;28;20030;-73
2022/11/19 12:34:12;;;;;;;8.05;5.45;;;12.30;57.20;;;;;;5016502;28;20021;-73
2022/11/19 12:36:55;;;;;;;11.32;7.93;;;12.30;67.30;;;;;;5019127;28;20039;-74
2022/11/19 12:39:39;;;;;;;11.52;8.82;;;12.50;50.70;;;;;;5019791;28;20491;-74
2022/11/19 12:42:07;;;;;;;10.80;8.27;;;12.50;49.30;;;;;;5014384;28;20037;-73
2022/11/19 12:44:56;;;;;;;9.85;7.47;;;12.40;47.80;;;;;;5027222;28;20017;-72
2022/11/19 12:47:36;;;;;;;10.45;7.95;;;12.20;47.20;;;;;;5021049;28;20032;-73
2022/11/19 12:50:15;;;;;;;11.90;7.53;;;12.30;48.70;;;;;;5019496;28;20026;-74
2022/11/19 12:52:46;;;;;;;7.95;5.82;;;12.60;53.40;;;;;;5013975;28;20037;-75
2022/11/19 12:55:25;;;;;;;5.90;3.88;;;12.90;54.20;;;;;;5015424;28;20026;-74
2022/11/19 12:57:51;;;;;;;8.43;4.88;;;13.10;60.80;;;;;;5016129;28;20384;-75
2022/11/19 13:00:25;;;;;;;9.02;4.82;;;13.50;62.60;;;;;;5015309;28;20026;-75
2022/11/19 13:02:57;;;;;;;8.70;6.63;;;13.80;64.20;;;;;;5015427;28;20034;-75
2022/11/19 13:05:54;;;;;;;6.25;4.00;;;14.20;61.00;;;;;;5020074;28;20050;-76
2022/11/19 13:08:26;;;;;;;8.18;3.70;;;14.20;61.70;;;;;;5017719;28;20029;-75
2022/11/19 13:11:10;;;;;;;7.90;5.55;;;14.40;71.50;;;;;;5021508;28;20033;-76
2022/11/19 13:13:42;;;;;;;8.57;6.03;;;14.70;66.80;;;;;;5010868;28;20030;-76
2022/11/19 13:16:17;;;;;;;7.80;5.63;;;14.50;52.30;;;;;;5015491;28;20029;-73
2022/11/19 13:18:47;;;;;;;9.73;4.70;;;14.40;61.90;;;;;;5011543;28;20018;-74
2022/11/19 13:21:15;;;;;;;;;;;14.60;62.70;;;;;;5013421;28;20038;-75